Terminal Aerodrome Forecast
Issued by NWS Cleveland, OH

Home | Current Version | Previous Version | Graphics & Text | Print | Product List | Glossary On
Versions: 1 2 3 4 5 6 7 8 9 10 11 12 13 14 15 16 17 18 19 20 21 22 23 24
368
FTUS41 KCLE 081136
TAFCAK
TAF
KCAK 081136Z 0812/0912 18006KT P6SM VCSH SCT025 OVC050
     FM081400 20006KT 5SM -RA BR SCT015 OVC025
      TEMPO 0816/0820 3SM -RA BR SCT008 OVC012
     FM082000 26008KT 3SM -RASN BR SCT008 OVC012
      TEMPO 0820/0823 1 1/2SM -SN BR OVC008
     FM090000 27005KT 4SM BR OVC012
     FM090400 28004KT 2SM -SN BR OVC007=

USA.gov is the U.S. government's official web portal to all federal, state and local government web resources and services.